createdAt,value
2017-09-21T00:00:06.860Z,86.22
2017-09-21T00:02:34.426Z,87.46
2017-09-21T00:05:02.044Z,87.84
2017-09-21T00:07:28.903Z,88.15
2017-09-21T00:09:55.829Z,88.30
2017-09-21T00:12:23.408Z,88.05
2017-09-21T00:14:50.981Z,88.17
2017-09-21T00:17:17.836Z,88.49
2017-09-21T00:19:44.709Z,88.66
2017-09-21T00:22:12.383Z,88.89
2017-09-21T00:24:39.196Z,89.01
2017-09-21T00:27:06.043Z,88.57
2017-09-21T00:29:32.907Z,88.75
2017-09-21T00:31:59.745Z,84.11
2017-09-21T00:34:26.590Z,84.96
2017-09-21T00:36:54.207Z,83.46
2017-09-21T00:39:21.181Z,84.40
2017-09-21T00:41:48.100Z,84.65
2017-09-21T00:44:15.684Z,82.80
2017-09-21T00:46:43.296Z,83.83
2017-09-21T00:49:10.779Z,83.79
2017-09-21T00:51:37.676Z,83.97
2017-09-21T00:54:04.651Z,85.08
2017-09-21T00:56:32.402Z,87.39
2017-09-21T00:58:59.505Z,89.11
2017-09-21T01:01:26.529Z,88.76
2017-09-21T01:03:53.361Z,89.42
2017-09-21T01:06:20.205Z,87.33
2017-09-21T01:08:47.867Z,89.09
2017-09-21T01:11:14.783Z,89.33
2017-09-21T01:13:41.635Z,89.34
2017-09-21T01:16:08.574Z,89.68
2017-09-21T01:18:35.459Z,87.85
2017-09-21T01:21:03.068Z,85.32
2017-09-21T01:23:29.951Z,83.06
2017-09-21T01:25:57.426Z,82.58
2017-09-21T01:28:24.342Z,84.68
2017-09-21T01:30:51.282Z,87.26
2017-09-21T01:33:18.922Z,88.20
2017-09-21T01:35:45.838Z,89.09
2017-09-21T01:38:12.738Z,85.43
2017-09-21T01:40:39.601Z,85.65
2017-09-21T01:43:06.466Z,87.31
2017-09-21T01:45:33.361Z,87.52
2017-09-21T01:48:01.006Z,87.36
2017-09-21T01:50:27.928Z,86.87
2017-09-21T01:52:54.839Z,87.22
2017-09-21T01:55:21.699Z,88.27
2017-09-21T01:57:48.639Z,88.19
2017-09-21T02:00:15.543Z,88.34
2017-09-21T02:02:42.423Z,85.75
2017-09-21T02:05:09.278Z,84.00
2017-09-21T02:07:36.963Z,85.73
2017-09-21T02:10:04.640Z,87.25
2017-09-21T02:12:32.538Z,88.45
2017-09-21T02:14:59.439Z,88.84
2017-09-21T02:17:26.410Z,87.59
2017-09-21T02:19:53.249Z,88.83
2017-09-21T02:22:20.773Z,88.71
2017-09-21T02:24:48.188Z,88.47
2017-09-21T02:27:15.008Z,90.01
2017-09-21T02:29:41.808Z,89.00
2017-09-21T02:32:08.629Z,85.27
2017-09-21T02:34:35.434Z,83.85
2017-09-21T02:37:03.014Z,83.37
2017-09-21T02:39:29.899Z,82.28
2017-09-21T02:41:56.704Z,84.65
2017-09-21T02:44:24.260Z,85.78
2017-09-21T02:46:51.153Z,83.22
2017-09-21T02:49:18.756Z,83.21
2017-09-21T02:51:45.595Z,84.70
2017-09-21T02:54:13.176Z,86.73
2017-09-21T02:56:40.043Z,86.97
2017-09-21T02:59:06.887Z,88.09
2017-09-21T03:01:34.424Z,87.37
2017-09-21T03:04:01.285Z,88.03
2017-09-21T03:06:28.110Z,87.32
2017-09-21T03:08:54.983Z,88.13
2017-09-21T03:11:21.781Z,89.20
2017-09-21T03:13:48.689Z,89.24
2017-09-21T03:16:15.597Z,89.55
2017-09-21T03:18:42.423Z,89.97
2017-09-21T03:21:09.329Z,89.86
2017-09-21T03:23:36.139Z,89.33
2017-09-21T03:26:03.699Z,88.84
2017-09-21T03:28:30.537Z,86.45
2017-09-21T03:30:57.345Z,84.85
2017-09-21T03:33:24.157Z,85.89
2017-09-21T03:35:50.964Z,84.46
2017-09-21T03:38:17.869Z,85.31
2017-09-21T03:40:44.680Z,87.87
2017-09-21T03:43:11.473Z,88.24
2017-09-21T03:45:38.384Z,89.18
2017-09-21T03:48:05.936Z,89.03
2017-09-21T03:50:32.772Z,89.44
2017-09-21T03:52:59.592Z,90.19
2017-09-21T03:55:26.430Z,89.90
2017-09-21T03:57:54.064Z,90.55
2017-09-21T04:00:20.894Z,88.88
2017-09-21T04:02:47.709Z,90.01
2017-09-21T04:05:14.558Z,89.53
2017-09-21T04:07:42.172Z,89.97
2017-09-21T04:10:09.752Z,89.65
2017-09-21T04:12:37.301Z,87.11
2017-09-21T04:15:04.182Z,85.78
2017-09-21T04:17:31.064Z,85.40
2017-09-21T04:19:58.713Z,86.06
2017-09-21T04:22:25.596Z,87.21
2017-09-21T04:24:53.167Z,87.88
2017-09-21T04:27:20.732Z,89.39
2017-09-21T04:29:47.519Z,89.68
2017-09-21T04:32:15.072Z,89.54
2017-09-21T04:34:41.892Z,90.14
2017-09-21T04:37:08.736Z,86.78
2017-09-21T04:39:35.609Z,85.08
2017-09-21T04:42:03.868Z,87.73
2017-09-21T04:44:30.660Z,88.52
2017-09-21T04:46:57.520Z,89.16
2017-09-21T04:49:24.392Z,88.15
2017-09-21T04:51:51.223Z,88.88
2017-09-21T04:54:18.096Z,87.40
2017-09-21T04:56:45.043Z,87.97
2017-09-21T04:59:11.886Z,85.19
2017-09-21T05:01:39.513Z,86.21
2017-09-21T05:04:06.370Z,88.86
2017-09-21T05:06:33.230Z,89.65
2017-09-21T05:09:00.120Z,90.12
2017-09-21T05:11:26.924Z,89.52
2017-09-21T05:13:53.716Z,88.10
2017-09-21T05:16:20.520Z,86.39
2017-09-21T05:18:47.331Z,86.56
2017-09-21T05:21:15.011Z,87.63
2017-09-21T05:23:42.572Z,87.88
2017-09-21T05:26:09.400Z,89.01
2017-09-21T05:28:36.996Z,89.63
2017-09-21T05:31:04.567Z,89.87
2017-09-21T05:33:32.140Z,90.38
2017-09-21T05:35:58.991Z,89.70
2017-09-21T05:38:25.823Z,88.55
2017-09-21T05:40:52.691Z,87.48
2017-09-21T05:43:19.525Z,87.65
2017-09-21T05:45:46.332Z,89.81
2017-09-21T05:48:13.163Z,89.98
2017-09-21T05:50:39.956Z,88.08
2017-09-21T05:53:06.772Z,88.93
2017-09-21T05:55:33.581Z,89.86
2017-09-21T05:58:00.415Z,89.30
2017-09-21T06:00:28.176Z,89.24
2017-09-21T06:02:55.025Z,90.91
2017-09-21T06:05:21.902Z,88.67
2017-09-21T06:07:48.701Z,90.89
2017-09-21T06:10:15.538Z,88.45
2017-09-21T06:12:42.380Z,87.45
2017-09-21T06:15:09.204Z,90.15
2017-09-21T06:17:36.818Z,90.54
2017-09-21T06:20:03.666Z,90.38
2017-09-21T06:22:30.537Z,89.54
2017-09-21T06:24:57.372Z,90.42
2017-09-21T06:27:24.946Z,86.12
2017-09-21T06:29:52.512Z,85.32
2017-09-21T06:32:19.318Z,87.25
2017-09-21T06:34:46.147Z,89.01
2017-09-21T06:37:13.732Z,86.06
2017-09-21T06:39:40.546Z,88.22
2017-09-21T06:42:07.384Z,87.17
2017-09-21T06:44:34.236Z,87.82
2017-09-21T06:47:01.093Z,87.71
2017-09-21T06:49:27.947Z,86.69
2017-09-21T06:51:54.790Z,87.13
2017-09-21T06:54:22.409Z,85.65
2017-09-21T06:56:49.189Z,88.41
2017-09-21T06:59:16.006Z,88.16
2017-09-21T07:01:42.889Z,86.88
2017-09-21T07:04:09.730Z,88.13
2017-09-21T07:06:36.560Z,88.84
2017-09-21T07:09:04.131Z,89.86
2017-09-21T07:11:30.968Z,87.52
2017-09-21T07:13:57.801Z,89.39
2017-09-21T07:16:24.632Z,87.12
2017-09-21T07:18:52.184Z,89.30
2017-09-21T07:21:19.006Z,88.79
2017-09-21T07:23:45.859Z,87.94
2017-09-21T07:26:12.685Z,88.96
2017-09-21T07:28:40.227Z,88.40
2017-09-21T07:31:07.043Z,89.13
2017-09-21T07:33:33.951Z,87.26
2017-09-21T07:36:00.764Z,88.24
2017-09-21T07:38:27.610Z,89.44
2017-09-21T07:40:55.177Z,88.48
2017-09-21T07:43:22.736Z,86.17
2017-09-21T07:45:49.582Z,85.54
2017-09-21T07:48:16.391Z,87.19
2017-09-21T07:50:44.028Z,85.32
2017-09-21T07:53:10.947Z,85.32
2017-09-21T07:55:37.770Z,84.69
2017-09-21T07:58:04.637Z,84.62
2017-09-21T08:00:31.507Z,85.99
2017-09-21T08:02:59.126Z,87.45
2017-09-21T08:05:25.962Z,87.93
2017-09-21T08:07:53.539Z,87.89
2017-09-21T08:10:21.115Z,84.05
2017-09-21T08:12:48.755Z,83.55
2017-09-21T08:15:15.610Z,83.29
2017-09-21T08:17:42.491Z,83.31
2017-09-21T08:20:09.301Z,80.53
2017-09-21T08:22:36.172Z,84.37
2017-09-21T08:25:03.026Z,82.81
2017-09-21T08:27:29.922Z,81.14
2017-09-21T08:29:56.755Z,80.58
2017-09-21T08:32:23.587Z,80.16
2017-09-21T08:34:50.418Z,79.51
2017-09-21T08:37:17.996Z,79.64
2017-09-21T08:39:44.881Z,82.51
2017-09-21T08:42:12.479Z,81.68
2017-09-21T08:44:39.276Z,78.93
2017-09-21T08:47:06.063Z,77.45
2017-09-21T08:49:32.896Z,79.03
2017-09-21T08:51:59.697Z,76.59
2017-09-21T08:54:27.269Z,76.86
2017-09-21T08:56:54.823Z,76.11
2017-09-21T08:59:21.615Z,73.86
2017-09-21T09:01:49.181Z,74.33
2017-09-21T09:04:16.759Z,73.54
2017-09-21T09:06:44.316Z,73.91
2017-09-21T09:09:11.249Z,72.97
2017-09-21T09:11:38.100Z,71.24
2017-09-21T09:14:04.904Z,69.55
2017-09-21T09:16:31.742Z,70.83
2017-09-21T09:18:58.624Z,68.54
2017-09-21T09:21:25.474Z,69.25
2017-09-21T09:23:52.308Z,70.94
2017-09-21T09:26:19.178Z,65.70
2017-09-21T09:28:45.971Z,66.12
2017-09-21T09:31:12.786Z,64.26
2017-09-21T09:33:39.602Z,64.93
2017-09-21T09:36:06.412Z,63.72
2017-09-21T09:38:33.279Z,62.26
2017-09-21T09:41:00.124Z,63.68
2017-09-21T09:43:26.931Z,62.45
2017-09-21T09:45:53.727Z,62.38
2017-09-21T09:48:21.311Z,61.40
2017-09-21T09:50:48.166Z,61.07
2017-09-21T09:53:15.704Z,60.92
2017-09-21T09:55:42.531Z,61.69
2017-09-21T09:58:09.389Z,58.92
2017-09-21T10:00:36.227Z,59.79
2017-09-21T10:03:03.776Z,58.31
2017-09-21T10:05:30.587Z,58.93
2017-09-21T10:07:57.393Z,58.46
2017-09-21T10:10:24.209Z,55.74
2017-09-21T10:12:51.022Z,56.01
2017-09-21T10:15:17.870Z,56.54
2017-09-21T10:17:44.806Z,54.21
2017-09-21T10:20:11.618Z,56.28
2017-09-21T10:22:39.180Z,54.43
2017-09-21T10:25:06.060Z,53.68
2017-09-21T10:27:32.922Z,53.23
2017-09-21T10:30:00.524Z,54.75
2017-09-21T10:32:27.364Z,53.82
2017-09-21T10:34:54.956Z,51.02
2017-09-21T10:37:21.752Z,51.71
2017-09-21T10:39:48.559Z,52.20
2017-09-21T10:42:16.100Z,51.34
2017-09-21T10:44:42.923Z,51.77
2017-09-21T10:47:09.740Z,49.80
2017-09-21T10:49:36.548Z,51.43
2017-09-21T10:52:03.393Z,51.58
2017-09-21T10:54:30.250Z,51.93
2017-09-21T10:56:57.146Z,51.72
2017-09-21T10:59:24.043Z,52.07
2017-09-21T11:01:50.861Z,51.46
2017-09-21T11:04:17.693Z,49.85
2017-09-21T11:06:45.297Z,49.50
2017-09-21T11:09:12.144Z,50.27
2017-09-21T11:11:38.992Z,49.64
2017-09-21T11:14:06.609Z,47.87
2017-09-21T11:16:33.518Z,47.97
2017-09-21T11:19:00.433Z,48.60
2017-09-21T11:21:27.258Z,47.22
2017-09-21T11:23:54.821Z,46.72
2017-09-21T11:26:22.423Z,47.02
2017-09-21T11:28:49.260Z,46.27
2017-09-21T11:31:16.784Z,45.50
2017-09-21T11:33:43.694Z,45.72
2017-09-21T11:36:10.557Z,46.54
2017-09-21T11:38:38.370Z,45.62
2017-09-21T11:41:05.313Z,44.91
2017-09-21T11:43:32.922Z,45.34
2017-09-21T11:45:59.869Z,45.63
2017-09-21T11:48:26.713Z,43.75
2017-09-21T11:50:54.343Z,43.17
2017-09-21T11:53:21.181Z,43.50
2017-09-21T11:55:48.069Z,45.45
2017-09-21T11:58:14.959Z,45.28
2017-09-21T12:00:41.832Z,46.91
2017-09-21T12:03:09.455Z,46.58
2017-09-21T12:05:36.295Z,46.77
2017-09-21T12:08:03.120Z,47.41
2017-09-21T12:10:29.999Z,48.08
2017-09-21T12:12:57.579Z,47.80
2017-09-21T12:15:25.170Z,48.87
2017-09-21T12:17:52.730Z,46.82
2017-09-21T12:20:19.588Z,46.87
2017-09-21T12:22:46.462Z,45.92
2017-09-21T12:25:14.080Z,44.74
2017-09-21T12:27:40.921Z,44.46
2017-09-21T12:30:07.763Z,44.46
2017-09-21T12:32:35.339Z,43.71
2017-09-21T12:35:04.591Z,42.61
2017-09-21T12:37:32.277Z,44.14
2017-09-21T12:39:59.143Z,43.84
2017-09-21T12:42:25.994Z,42.44
2017-09-21T12:44:53.614Z,44.47
2017-09-21T12:47:20.462Z,42.98
2017-09-21T12:49:47.333Z,44.88
2017-09-21T12:52:14.162Z,45.86
2017-09-21T12:54:41.000Z,42.62
2017-09-21T12:57:07.968Z,42.66
2017-09-21T12:59:34.819Z,41.64
2017-09-21T13:02:03.040Z,39.72
2017-09-21T13:04:29.899Z,40.50
2017-09-21T13:06:56.735Z,42.16
2017-09-21T13:09:23.639Z,42.20
2017-09-21T13:11:50.479Z,41.83
2017-09-21T13:14:17.325Z,39.55
2017-09-21T13:16:44.168Z,38.14
2017-09-21T13:19:11.014Z,38.25
2017-09-21T13:21:37.872Z,39.32
2017-09-21T13:24:04.754Z,39.43
2017-09-21T13:26:32.348Z,41.79
2017-09-21T13:28:59.251Z,42.21
2017-09-21T13:31:28.475Z,43.86
2017-09-21T13:33:55.433Z,42.61
2017-09-21T13:36:22.264Z,41.42
2017-09-21T13:38:49.197Z,40.85
2017-09-21T13:41:16.747Z,42.83
2017-09-21T13:43:43.644Z,41.40
2017-09-21T13:46:11.219Z,41.36
2017-09-21T13:48:38.772Z,40.16
2017-09-21T13:51:06.443Z,40.52
2017-09-21T13:53:33.350Z,40.16
2017-09-21T13:56:00.235Z,44.92
2017-09-21T13:58:27.062Z,41.92
2017-09-21T14:00:54.634Z,42.43
2017-09-21T14:03:22.218Z,44.28
2017-09-21T14:05:49.041Z,43.22
2017-09-21T14:08:15.859Z,43.19
2017-09-21T14:10:42.686Z,42.45
2017-09-21T14:13:10.321Z,43.69
2017-09-21T14:15:37.125Z,41.05
2017-09-21T14:18:03.982Z,42.70
2017-09-21T14:20:30.835Z,42.44
2017-09-21T14:22:57.697Z,42.70
2017-09-21T14:25:24.529Z,42.75
2017-09-21T14:27:52.726Z,42.93
2017-09-21T14:30:20.327Z,42.67
2017-09-21T14:32:47.128Z,43.15
2017-09-21T14:35:13.941Z,42.57
2017-09-21T14:37:40.812Z,42.11
2017-09-21T14:40:07.757Z,41.06
2017-09-21T14:42:34.629Z,41.27
2017-09-21T14:45:01.494Z,41.67
2017-09-21T14:47:28.296Z,43.40
2017-09-21T14:49:55.224Z,42.81
2017-09-21T14:52:22.071Z,42.28
2017-09-21T14:54:48.893Z,43.84
2017-09-21T14:57:15.763Z,45.36
2017-09-21T14:59:42.595Z,45.12
2017-09-21T15:02:10.212Z,44.38
2017-09-21T15:04:37.034Z,45.55
2017-09-21T15:07:04.556Z,45.00
2017-09-21T15:09:31.373Z,47.38
2017-09-21T15:11:58.223Z,45.23
2017-09-21T15:14:25.794Z,45.74
2017-09-21T15:16:53.362Z,45.42
2017-09-21T15:19:20.197Z,46.13
2017-09-21T15:21:47.064Z,46.42
2017-09-21T15:24:13.898Z,46.92
2017-09-21T15:26:40.758Z,46.98
2017-09-21T15:29:07.587Z,48.09
2017-09-21T15:31:35.160Z,46.99
2017-09-21T15:34:02.735Z,47.47
2017-09-21T15:36:30.292Z,47.49
2017-09-21T15:38:57.133Z,48.11
2017-09-21T15:41:23.938Z,48.27
2017-09-21T15:43:51.534Z,48.56
2017-09-21T15:46:18.415Z,48.53
2017-09-21T15:48:45.244Z,48.52
2017-09-21T15:51:12.867Z,49.37
2017-09-21T15:53:39.727Z,48.97
2017-09-21T15:56:06.534Z,48.78
2017-09-21T15:58:34.100Z,50.62
2017-09-21T16:01:00.912Z,49.80
2017-09-21T16:03:27.806Z,49.33
2017-09-21T16:05:54.654Z,49.79
2017-09-21T16:08:21.512Z,50.69
2017-09-21T16:10:48.391Z,51.46
2017-09-21T16:13:15.369Z,50.47
2017-09-21T16:15:42.203Z,51.17
2017-09-21T16:18:09.101Z,51.58
2017-09-21T16:20:36.651Z,50.78
2017-09-21T16:23:03.473Z,52.09
2017-09-21T16:25:30.289Z,51.48
2017-09-21T16:27:57.104Z,53.89
2017-09-21T16:30:23.918Z,53.68
2017-09-21T16:32:50.711Z,53.57
2017-09-21T16:35:17.547Z,53.09
2017-09-21T16:37:45.146Z,54.87
2017-09-21T16:40:12.034Z,54.79
2017-09-21T16:42:38.886Z,55.14
2017-09-21T16:45:05.701Z,54.86
2017-09-21T16:47:32.511Z,56.25
2017-09-21T16:49:59.348Z,55.58
2017-09-21T16:52:26.155Z,55.10
2017-09-21T16:54:53.215Z,55.71
2017-09-21T16:57:20.017Z,57.19
2017-09-21T16:59:47.583Z,59.19
2017-09-21T17:02:14.468Z,60.21
2017-09-21T17:04:42.040Z,58.64
2017-09-21T17:07:09.674Z,58.16
2017-09-21T17:09:37.466Z,58.71
2017-09-21T17:12:04.293Z,59.54
2017-09-21T17:14:31.124Z,59.22
2017-09-21T17:16:58.768Z,58.98
2017-09-21T17:19:25.628Z,61.53
2017-09-21T17:21:53.381Z,61.07
2017-09-21T17:24:20.915Z,62.64
2017-09-21T17:26:47.877Z,60.57
2017-09-21T17:29:14.766Z,61.09
2017-09-21T17:31:41.626Z,61.08
2017-09-21T17:34:08.511Z,60.21
2017-09-21T17:36:35.386Z,62.05
2017-09-21T17:39:02.295Z,62.17
2017-09-21T17:41:29.973Z,63.12
2017-09-21T17:43:57.661Z,65.47
2017-09-21T17:46:25.246Z,68.86
2017-09-21T17:48:52.108Z,69.02
2017-09-21T17:51:18.967Z,69.12
2017-09-21T17:53:46.625Z,69.98
2017-09-21T17:56:13.491Z,71.24
2017-09-21T17:58:40.369Z,67.27
2017-09-21T18:01:07.938Z,65.13
2017-09-21T18:03:34.827Z,70.70
2017-09-21T18:06:01.749Z,69.96
2017-09-21T18:08:28.603Z,73.55
2017-09-21T18:10:55.482Z,72.13
2017-09-21T18:13:23.094Z,73.32
2017-09-21T18:15:49.950Z,73.29
2017-09-21T18:18:16.832Z,71.13
2017-09-21T18:20:43.762Z,70.78
2017-09-21T18:23:11.337Z,72.00
2017-09-21T18:25:39.019Z,71.14
2017-09-21T18:28:05.916Z,71.23
2017-09-21T18:30:32.799Z,71.44
2017-09-21T18:32:59.789Z,74.88
2017-09-21T18:35:27.436Z,76.15
2017-09-21T18:37:54.351Z,74.93
2017-09-21T18:40:21.294Z,76.03
2017-09-21T18:42:48.374Z,77.52
2017-09-21T18:45:16.244Z,74.17
2017-09-21T18:47:44.743Z,74.45
2017-09-21T18:50:11.619Z,74.60
2017-09-21T18:52:39.204Z,71.09
2017-09-21T18:55:06.953Z,70.51
2017-09-21T18:57:33.817Z,69.66
2017-09-21T19:00:00.751Z,69.61
2017-09-21T19:02:27.606Z,69.38
2017-09-21T19:04:54.514Z,69.49
2017-09-21T19:07:21.899Z,72.34
2017-09-21T19:09:48.825Z,74.07
2017-09-21T19:12:16.681Z,77.62
2017-09-21T19:14:43.869Z,77.59
2017-09-21T19:17:10.814Z,78.33
2017-09-21T19:19:37.988Z,78.76
2017-09-21T19:22:05.061Z,77.06
2017-09-21T19:24:31.932Z,74.35
2017-09-21T19:26:58.818Z,71.98
2017-09-21T19:29:25.705Z,70.93
2017-09-21T19:31:53.731Z,73.40
2017-09-21T19:34:20.666Z,72.87
2017-09-21T19:36:47.936Z,72.34
2017-09-21T19:39:14.999Z,72.94
2017-09-21T19:41:41.880Z,77.53
2017-09-21T19:44:09.498Z,79.45
2017-09-21T19:46:36.581Z,80.16
2017-09-21T19:49:04.395Z,77.83
2017-09-21T19:51:31.568Z,80.49
2017-09-21T19:53:58.635Z,79.43
2017-09-21T19:56:25.682Z,80.47
2017-09-21T19:58:53.464Z,79.03
2017-09-21T20:01:21.278Z,76.55
2017-09-21T20:03:48.194Z,78.24
2017-09-21T20:06:15.138Z,76.35
2017-09-21T20:08:42.222Z,76.34
2017-09-21T20:11:09.704Z,79.05
2017-09-21T20:13:37.488Z,79.23
2017-09-21T20:16:05.096Z,77.33
2017-09-21T20:18:32.020Z,80.16
2017-09-21T20:20:58.867Z,76.46
2017-09-21T20:23:25.856Z,75.68
2017-09-21T20:25:53.507Z,75.81
2017-09-21T20:28:20.538Z,76.35
2017-09-21T20:30:47.674Z,77.65
2017-09-21T20:33:15.377Z,78.59
2017-09-21T20:35:42.239Z,77.59
2017-09-21T20:38:09.178Z,76.76
2017-09-21T20:40:36.879Z,77.79
2017-09-21T20:43:03.845Z,80.48
2017-09-21T20:45:30.662Z,80.12
2017-09-21T20:47:57.703Z,82.32
2017-09-21T20:50:24.652Z,81.54
2017-09-21T20:52:51.720Z,79.00
2017-09-21T20:55:18.731Z,77.21
2017-09-21T20:57:45.711Z,78.70
2017-09-21T21:00:15.654Z,79.42
2017-09-21T21:02:43.390Z,76.94
2017-09-21T21:05:10.313Z,77.49
2017-09-21T21:07:37.330Z,80.26
2017-09-21T21:10:04.188Z,77.22
2017-09-21T21:12:31.167Z,80.54
2017-09-21T21:14:58.904Z,82.29
2017-09-21T21:17:26.990Z,83.06
2017-09-21T21:19:53.909Z,82.19
2017-09-21T21:22:21.614Z,78.41
2017-09-21T21:24:48.538Z,82.18
2017-09-21T21:27:15.598Z,80.44
2017-09-21T21:29:45.085Z,79.07
2017-09-21T21:32:12.672Z,82.15
2017-09-21T21:34:39.639Z,83.27
2017-09-21T21:37:06.480Z,83.62
2017-09-21T21:39:33.636Z,78.55
2017-09-21T21:42:00.525Z,81.34
2017-09-21T21:44:27.476Z,78.46
2017-09-21T21:46:54.463Z,78.32
2017-09-21T21:49:21.397Z,77.14
2017-09-21T21:51:48.407Z,78.67
2017-09-21T21:54:15.401Z,80.00
2017-09-21T21:56:43.137Z,78.71
2017-09-21T21:59:10.010Z,79.71
2017-09-21T22:01:37.883Z,80.87
2017-09-21T22:04:04.847Z,79.40
2017-09-21T22:06:31.849Z,77.64
2017-09-21T22:08:59.641Z,76.50
2017-09-21T22:11:26.694Z,77.18
2017-09-21T22:13:54.538Z,76.37
2017-09-21T22:16:21.546Z,77.66
2017-09-21T22:18:50.314Z,76.96
2017-09-21T22:21:17.319Z,77.31
2017-09-21T22:23:44.971Z,78.18
2017-09-21T22:26:12.014Z,77.71
2017-09-21T22:28:38.969Z,75.44
2017-09-21T22:31:05.891Z,77.43
2017-09-21T22:33:33.452Z,78.25
2017-09-21T22:36:00.278Z,77.74
2017-09-21T22:38:27.135Z,77.42
2017-09-21T22:40:55.626Z,81.24
2017-09-21T22:43:22.490Z,81.33
2017-09-21T22:45:49.349Z,79.91
2017-09-21T22:48:17.307Z,80.98
2017-09-21T22:50:45.260Z,79.75
2017-09-21T22:53:12.094Z,79.14
2017-09-21T22:55:38.954Z,82.30
2017-09-21T22:58:05.739Z,83.09
2017-09-21T23:00:32.626Z,82.06
2017-09-21T23:03:00.232Z,83.77
2017-09-21T23:05:27.035Z,83.19
2017-09-21T23:07:53.927Z,82.08
2017-09-21T23:10:21.478Z,81.89
2017-09-21T23:12:48.352Z,85.07
2017-09-21T23:15:15.169Z,84.51
2017-09-21T23:17:42.010Z,85.74
2017-09-21T23:20:08.793Z,85.76
2017-09-21T23:22:35.592Z,86.16
2017-09-21T23:25:02.470Z,81.71
2017-09-21T23:27:29.368Z,85.25
2017-09-21T23:29:56.219Z,80.14
2017-09-21T23:32:23.034Z,80.12
2017-09-21T23:34:49.880Z,80.54
2017-09-21T23:37:16.703Z,82.79
2017-09-21T23:39:43.604Z,82.89
2017-09-21T23:42:10.459Z,83.38
2017-09-21T23:44:37.277Z,80.65
2017-09-21T23:47:04.167Z,81.68
2017-09-21T23:49:31.052Z,81.86
2017-09-21T23:51:57.890Z,82.86
2017-09-21T23:54:25.110Z,81.73
2017-09-21T23:56:52.051Z,84.01
2017-09-21T23:59:19.118Z,83.37
